sensor_id;sensor_type;location;lat;lon;timestamp;P1;P2;P0
68198;PMS7003;55021;51.554;17.044;2023-07-13T00:12:46;32.25;29.50;20.00
68198;PMS7003;55021;51.554;17.044;2023-07-13T00:27:49;36.50;31.75;20.75
68198;PMS7003;55021;51.554;17.044;2023-07-13T00:42:53;37.75;32.00;21.75
68198;PMS7003;55021;51.554;17.044;2023-07-13T00:57:55;42.25;33.00;23.00
68198;PMS7003;55021;51.554;17.044;2023-07-13T01:12:58;37.75;33.00;22.00
68198;PMS7003;55021;51.554;17.044;2023-07-13T01:28:01;37.25;31.75;21.50
68198;PMS7003;55021;51.554;17.044;2023-07-13T01:43:04;37.50;30.75;20.75
68198;PMS7003;55021;51.554;17.044;2023-07-13T01:58:07;36.75;32.25;22.00
68198;PMS7003;55021;51.554;17.044;2023-07-13T02:13:09;34.75;31.00;19.00
68198;PMS7003;55021;51.554;17.044;2023-07-13T02:28:12;37.50;32.00;21.00
68198;PMS7003;55021;51.554;17.044;2023-07-13T02:43:14;39.00;33.50;21.00
68198;PMS7003;55021;51.554;17.044;2023-07-13T02:58:17;40.25;32.50;22.25
68198;PMS7003;55021;51.554;17.044;2023-07-13T03:13:20;28.25;26.25;17.75
68198;PMS7003;55021;51.554;17.044;2023-07-13T03:28:22;31.00;27.25;17.25
68198;PMS7003;55021;51.554;17.044;2023-07-13T03:43:25;34.75;31.25;20.00
68198;PMS7003;55021;51.554;17.044;2023-07-13T03:58:29;27.50;26.00;18.00
68198;PMS7003;55021;51.554;17.044;2023-07-13T04:13:33;29.25;27.00;17.00
68198;PMS7003;55021;51.554;17.044;2023-07-13T04:28:35;18.50;18.50;11.25
68198;PMS7003;55021;51.554;17.044;2023-07-13T04:43:38;21.00;18.25;10.75
68198;PMS7003;55021;51.554;17.044;2023-07-13T04:58:40;18.25;16.50;10.50
68198;PMS7003;55021;51.554;17.044;2023-07-13T05:13:43;18.50;16.00;10.25
68198;PMS7003;55021;51.554;17.044;2023-07-13T05:28:45;14.25;12.00;8.00
68198;PMS7003;55021;51.554;17.044;2023-07-13T05:43:48;16.00;15.00;9.00
68198;PMS7003;55021;51.554;17.044;2023-07-13T05:58:51;15.50;13.75;8.25
68198;PMS7003;55021;51.554;17.044;2023-07-13T06:13:54;14.00;13.75;7.75
68198;PMS7003;55021;51.554;17.044;2023-07-13T06:28:57;16.25;14.25;9.00
68198;PMS7003;55021;51.554;17.044;2023-07-13T06:43:59;18.75;16.50;10.00
68198;PMS7003;55021;51.554;17.044;2023-07-13T06:59:02;15.25;14.50;9.00
68198;PMS7003;55021;51.554;17.044;2023-07-13T07:14:04;16.00;14.25;8.50
68198;PMS7003;55021;51.554;17.044;2023-07-13T07:29:07;16.00;15.75;9.75
68198;PMS7003;55021;51.554;17.044;2023-07-13T07:44:09;17.00;14.75;9.25
68198;PMS7003;55021;51.554;17.044;2023-07-13T07:59:11;17.50;15.50;9.00
68198;PMS7003;55021;51.554;17.044;2023-07-13T08:14:14;15.00;14.00;8.00
68198;PMS7003;55021;51.554;17.044;2023-07-13T08:29:16;14.50;13.50;8.00
68198;PMS7003;55021;51.554;17.044;2023-07-13T08:44:20;14.75;14.00;8.00
68198;PMS7003;55021;51.554;17.044;2023-07-13T08:59:30;14.75;14.75;9.25
68198;PMS7003;55021;51.554;17.044;2023-07-13T09:14:40;13.50;13.50;7.75
68198;PMS7003;55021;51.554;17.044;2023-07-13T09:29:47;15.50;13.75;7.00
68198;PMS7003;55021;51.554;17.044;2023-07-13T09:44:55;15.50;12.50;7.00
68198;PMS7003;55021;51.554;17.044;2023-07-13T09:59:59;12.25;11.75;6.50
68198;PMS7003;55021;51.554;17.044;2023-07-13T10:15:02;13.00;12.00;7.00
68198;PMS7003;55021;51.554;17.044;2023-07-13T10:30:09;10.00;10.00;7.00
68198;PMS7003;55021;51.554;17.044;2023-07-13T10:45:16;12.25;11.00;6.25
68198;PMS7003;55021;51.554;17.044;2023-07-13T11:00:21;14.50;13.00;8.00
68198;PMS7003;55021;51.554;17.044;2023-07-13T11:15:32;14.25;13.50;8.25
68198;PMS7003;55021;51.554;17.044;2023-07-13T11:30:47;16.75;16.75;10.50
68198;PMS7003;55021;51.554;17.044;2023-07-13T11:45:52;16.25;16.00;9.75
68198;PMS7003;55021;51.554;17.044;2023-07-13T12:00:54;16.00;15.25;9.00
68198;PMS7003;55021;51.554;17.044;2023-07-13T12:16:00;16.00;14.75;8.25
68198;PMS7003;55021;51.554;17.044;2023-07-13T12:31:03;16.25;15.50;10.00
68198;PMS7003;55021;51.554;17.044;2023-07-13T12:46:16;14.00;13.25;7.75
68198;PMS7003;55021;51.554;17.044;2023-07-13T13:01:20;12.25;12.25;7.25
68198;PMS7003;55021;51.554;17.044;2023-07-13T13:16:31;14.00;12.50;7.25
68198;PMS7003;55021;51.554;17.044;2023-07-13T13:31:34;12.00;12.00;7.00
68198;PMS7003;55021;51.554;17.044;2023-07-13T13:46:39;14.00;12.50;7.25
68198;PMS7003;55021;51.554;17.044;2023-07-13T14:59:20;14.75;14.75;9.50
68198;PMS7003;55021;51.554;17.044;2023-07-13T15:14:23;15.00;15.00;9.50
68198;PMS7003;55021;51.554;17.044;2023-07-13T15:29:26;17.00;17.00;9.25
68198;PMS7003;55021;51.554;17.044;2023-07-13T15:44:29;16.75;15.75;9.00
68198;PMS7003;55021;51.554;17.044;2023-07-13T15:59:33;16.25;16.25;10.00
68198;PMS7003;55021;51.554;17.044;2023-07-13T16:14:35;13.25;13.25;8.00
68198;PMS7003;55021;51.554;17.044;2023-07-13T16:29:38;14.00;14.00;9.00
68198;PMS7003;55021;51.554;17.044;2023-07-13T16:44:41;15.25;14.50;9.00
68198;PMS7003;55021;51.554;17.044;2023-07-13T16:59:49;16.50;15.75;10.25
68198;PMS7003;55021;51.554;17.044;2023-07-13T17:14:52;16.75;16.75;11.25
68198;PMS7003;55021;51.554;17.044;2023-07-13T17:29:55;23.75;23.75;16.50
68198;PMS7003;55021;51.554;17.044;2023-07-13T17:44:57;36.50;31.75;19.50
68198;PMS7003;55021;51.554;17.044;2023-07-13T18:00:00;23.25;20.25;12.50
68198;PMS7003;55021;51.554;17.044;2023-07-13T18:15:02;18.75;17.00;11.50
68198;PMS7003;55021;51.554;17.044;2023-07-13T18:30:06;22.25;20.50;11.50
68198;PMS7003;55021;51.554;17.044;2023-07-13T18:45:11;22.25;20.75;14.00
68198;PMS7003;55021;51.554;17.044;2023-07-13T19:00:15;23.75;22.75;14.75
68198;PMS7003;55021;51.554;17.044;2023-07-13T19:15:18;22.75;22.00;14.00
68198;PMS7003;55021;51.554;17.044;2023-07-13T19:30:23;27.50;24.00;17.00
68198;PMS7003;55021;51.554;17.044;2023-07-13T19:45:26;22.00;22.00;14.00
68198;PMS7003;55021;51.554;17.044;2023-07-13T20:00:28;26.50;23.50;15.75
68198;PMS7003;55021;51.554;17.044;2023-07-13T20:15:31;28.50;25.50;17.50
68198;PMS7003;55021;51.554;17.044;2023-07-13T20:30:34;20.50;19.75;12.75
68198;PMS7003;55021;51.554;17.044;2023-07-13T20:45:44;22.25;21.50;14.75
68198;PMS7003;55021;51.554;17.044;2023-07-13T21:00:47;31.75;28.50;18.00
68198;PMS7003;55021;51.554;17.044;2023-07-13T21:15:50;23.00;21.00;13.75
68198;PMS7003;55021;51.554;17.044;2023-07-13T21:30:54;15.25;15.25;10.75
68198;PMS7003;55021;51.554;17.044;2023-07-13T21:46:01;19.00;17.00;11.00
68198;PMS7003;55021;51.554;17.044;2023-07-13T22:01:03;19.25;19.00;12.00
68198;PMS7003;55021;51.554;17.044;2023-07-13T22:16:16;19.25;18.75;12.75
68198;PMS7003;55021;51.554;17.044;2023-07-13T22:31:22;22.00;22.00;15.00
68198;PMS7003;55021;51.554;17.044;2023-07-13T22:46:28;28.75;23.25;15.00
68198;PMS7003;55021;51.554;17.044;2023-07-13T23:01:33;27.50;23.25;16.25
68198;PMS7003;55021;51.554;17.044;2023-07-13T23:16:38;21.50;21.50;14.75
68198;PMS7003;55021;51.554;17.044;2023-07-13T23:31:41;22.75;22.25;15.00
68198;PMS7003;55021;51.554;17.044;2023-07-13T23:46:45;20.25;20.25;13.25
